sensor_id;sensor_type;location;lat;lon;timestamp;pressure;altitude;pressure_sealevel;temperature;humidity
43119;BME280;28729;49.838;8.650;2023-05-21T00:03:51;99531.53;;;15.03;100.00
43119;BME280;28729;49.838;8.650;2023-05-21T00:07:54;99536.81;;;14.99;100.00
43119;BME280;28729;49.838;8.650;2023-05-21T00:11:55;99531.53;;;15.03;100.00
43119;BME280;28729;49.838;8.650;2023-05-21T00:15:57;99524.03;;;15.03;100.00
43119;BME280;28729;49.838;8.650;2023-05-21T00:19:59;99527.66;;;14.99;100.00
43119;BME280;28729;49.838;8.650;2023-05-21T00:24:03;99511.84;;;14.99;100.00
43119;BME280;28729;49.838;8.650;2023-05-21T00:28:04;99520.75;;;14.96;100.00
43119;BME280;28729;49.838;8.650;2023-05-21T00:32:06;99506.31;;;14.94;100.00
43119;BME280;28729;49.838;8.650;2023-05-21T00:36:08;99507.97;;;14.95;100.00
43119;BME280;28729;49.838;8.650;2023-05-21T00:40:14;99502.72;;;14.94;100.00
43119;BME280;28729;49.838;8.650;2023-05-21T00:44:16;99499.13;;;14.93;100.00
43119;BME280;28729;49.838;8.650;2023-05-21T00:48:19;99492.72;;;14.93;100.00
43119;BME280;28729;49.838;8.650;2023-05-21T00:52:21;99496.34;;;14.93;100.00
43119;BME280;28729;49.838;8.650;2023-05-21T00:56:23;99498.00;;;14.94;100.00
43119;BME280;28729;49.838;8.650;2023-05-21T01:00:27;99493.28;;;14.95;100.00
43119;BME280;28729;49.838;8.650;2023-05-21T01:04:30;99489.66;;;14.99;100.00
43119;BME280;28729;49.838;8.650;2023-05-21T01:08:32;99484.13;;;14.99;100.00
43119;BME280;28729;49.838;8.650;2023-05-21T01:12:37;99486.03;;;14.99;100.00
43119;BME280;28729;49.838;8.650;2023-05-21T01:16:41;99469.94;;;15.01;100.00
43119;BME280;28729;49.838;8.650;2023-05-21T01:20:44;99474.94;;;14.99;100.00
43119;BME280;28729;49.838;8.650;2023-05-21T01:24:49;99465.75;;;15.03;100.00
43119;BME280;28729;49.838;8.650;2023-05-21T01:28:52;99463.25;;;15.02;100.00
43119;BME280;28729;49.838;8.650;2023-05-21T01:33:13;99463.25;;;15.02;100.00
43119;BME280;28729;49.838;8.650;2023-05-21T01:37:21;99469.38;;;14.99;100.00
43119;BME280;28729;49.838;8.650;2023-05-21T01:41:28;99458.91;;;14.91;100.00
43119;BME280;28729;49.838;8.650;2023-05-21T01:45:35;99453.88;;;14.93;100.00
43119;BME280;28729;49.838;8.650;2023-05-21T01:49:40;99454.75;;;14.88;100.00
43119;BME280;28729;49.838;8.650;2023-05-21T01:53:42;99457.28;;;14.85;100.00
43119;BME280;28729;49.838;8.650;2023-05-21T01:57:43;99455.09;;;14.81;100.00
43119;BME280;28729;49.838;8.650;2023-05-21T02:01:46;99450.38;;;14.77;100.00
43119;BME280;28729;49.838;8.650;2023-05-21T02:05:47;99447.06;;;14.75;100.00
43119;BME280;28729;49.838;8.650;2023-05-21T02:09:49;99443.22;;;14.71;100.00
43119;BME280;28729;49.838;8.650;2023-05-21T02:13:55;99446.56;;;14.68;100.00
43119;BME280;28729;49.838;8.650;2023-05-21T02:17:57;99444.38;;;14.65;100.00
43119;BME280;28729;49.838;8.650;2023-05-21T02:21:59;99449.09;;;14.64;100.00
43119;BME280;28729;49.838;8.650;2023-05-21T02:26:01;99451.56;;;14.66;100.00
43119;BME280;28729;49.838;8.650;2023-05-21T02:30:06;99448.78;;;14.66;100.00
43119;BME280;28729;49.838;8.650;2023-05-21T02:34:08;99446.56;;;14.68;100.00
43119;BME280;28729;49.838;8.650;2023-05-21T02:38:10;99440.72;;;14.69;100.00
43119;BME280;28729;49.838;8.650;2023-05-21T02:42:14;99447.06;;;14.75;100.00
43119;BME280;28729;49.838;8.650;2023-05-21T02:46:16;99445.66;;;14.77;100.00
43119;BME280;28729;49.838;8.650;2023-05-21T02:50:18;99448.16;;;14.79;100.00
43119;BME280;28729;49.838;8.650;2023-05-21T02:54:26;99439.03;;;14.78;100.00
43119;BME280;28729;49.838;8.650;2023-05-21T02:58:28;99451.75;;;14.79;100.00
43119;BME280;28729;49.838;8.650;2023-05-21T03:02:30;99447.63;;;14.77;100.00
43119;BME280;28729;49.838;8.650;2023-05-21T03:06:33;99452.03;;;14.78;100.00
43119;BME280;28729;49.838;8.650;2023-05-21T03:10:36;99444.03;;;14.71;100.00
43119;BME280;28729;49.838;8.650;2023-05-21T03:14:38;99450.16;;;14.68;100.00
43119;BME280;28729;49.838;8.650;2023-05-21T03:18:39;99437.69;;;14.66;100.00
43119;BME280;28729;49.838;8.650;2023-05-21T03:22:42;99441.59;;;14.59;100.00
43119;BME280;28729;49.838;8.650;2023-05-21T03:26:46;99434.44;;;14.53;100.00
43119;BME280;28729;49.838;8.650;2023-05-21T03:30:49;99434.41;;;14.48;100.00
43119;BME280;28729;49.838;8.650;2023-05-21T03:35:14;99422.56;;;14.43;100.00
43119;BME280;28729;49.838;8.650;2023-05-21T03:39:16;99427.00;;;14.39;100.00
43119;BME280;28729;49.838;8.650;2023-05-21T03:43:18;99427.31;;;14.32;100.00
43119;BME280;28729;49.838;8.650;2023-05-21T03:47:20;99423.44;;;14.28;100.00
43119;BME280;28729;49.838;8.650;2023-05-21T03:51:23;99431.47;;;14.24;100.00
43119;BME280;28729;49.838;8.650;2023-05-21T03:55:26;99432.88;;;14.22;100.00
43119;BME280;28729;49.838;8.650;2023-05-21T03:59:27;99433.44;;;14.19;100.00
43119;BME280;28729;49.838;8.650;2023-05-21T04:03:30;99439.53;;;14.21;100.00
43119;BME280;28729;49.838;8.650;2023-05-21T04:07:33;99431.78;;;14.23;100.00
43119;BME280;28729;49.838;8.650;2023-05-21T04:11:40;99433.16;;;14.25;100.00
43119;BME280;28729;49.838;8.650;2023-05-21T04:15:43;99435.88;;;14.30;100.00
43119;BME280;28729;49.838;8.650;2023-05-21T04:19:47;99434.50;;;14.33;100.00
43119;BME280;28729;49.838;8.650;2023-05-21T04:23:49;99438.38;;;14.37;100.00
43119;BME280;28729;49.838;8.650;2023-05-21T04:28:05;99442.47;;;14.45;100.00
43119;BME280;28729;49.838;8.650;2023-05-21T04:32:07;99442.47;;;14.50;100.00
43119;BME280;28729;49.838;8.650;2023-05-21T04:36:10;99452.72;;;14.54;100.00
43119;BME280;28729;49.838;8.650;2023-05-21T04:40:12;99454.06;;;14.62;100.00
43119;BME280;28729;49.838;8.650;2023-05-21T04:44:19;99454.88;;;14.68;100.00
43119;BME280;28729;49.838;8.650;2023-05-21T04:48:21;99455.97;;;14.72;100.00
43119;BME280;28729;49.838;8.650;2023-05-21T04:52:27;99451.50;;;14.76;100.00
43119;BME280;28729;49.838;8.650;2023-05-21T04:56:29;99453.13;;;14.82;100.00
43119;BME280;28729;49.838;8.650;2023-05-21T05:00:33;99464.19;;;14.87;100.00
43119;BME280;28729;49.838;8.650;2023-05-21T05:04:35;99448.09;;;14.89;100.00
43119;BME280;28729;49.838;8.650;2023-05-21T05:08:36;99448.34;;;14.93;100.00
43119;BME280;28729;49.838;8.650;2023-05-21T05:12:38;99449.19;;;14.93;100.00
43119;BME280;28729;49.838;8.650;2023-05-21T05:16:41;99454.44;;;14.95;100.00
43119;BME280;28729;49.838;8.650;2023-05-21T05:20:43;99452.22;;;14.97;100.00
43119;BME280;28729;49.838;8.650;2023-05-21T05:24:45;99448.53;;;15.07;100.00
43119;BME280;28729;49.838;8.650;2023-05-21T05:28:47;99450.13;;;15.18;100.00
43119;BME280;28729;49.838;8.650;2023-05-21T05:32:49;99449.22;;;15.27;100.00
43119;BME280;28729;49.838;8.650;2023-05-21T05:36:52;99454.94;;;15.41;100.00
43119;BME280;28729;49.838;8.650;2023-05-21T05:40:53;99451.47;;;15.55;100.00
43119;BME280;28729;49.838;8.650;2023-05-21T05:44:56;99442.44;;;15.73;100.00
43119;BME280;28729;49.838;8.650;2023-05-21T05:48:57;99443.06;;;15.94;100.00
43119;BME280;28729;49.838;8.650;2023-05-21T05:52:59;99445.63;;;16.14;100.00
43119;BME280;28729;49.838;8.650;2023-05-21T05:57:02;99443.13;;;16.37;100.00
43119;BME280;28729;49.838;8.650;2023-05-21T06:01:04;99451.13;;;16.62;100.00
43119;BME280;28729;49.838;8.650;2023-05-21T06:05:07;99446.13;;;16.83;100.00
43119;BME280;28729;49.838;8.650;2023-05-21T06:09:10;99435.31;;;17.01;100.00
43119;BME280;28729;49.838;8.650;2023-05-21T06:13:12;99440.75;;;17.11;100.00
43119;BME280;28729;49.838;8.650;2023-05-21T06:17:15;99443.19;;;17.31;100.00
43119;BME280;28729;49.838;8.650;2023-05-21T06:21:16;99448.72;;;17.50;100.00
43119;BME280;28729;49.838;8.650;2023-05-21T06:25:19;99449.19;;;17.71;100.00
43119;BME280;28729;49.838;8.650;2023-05-21T06:29:22;99447.34;;;17.99;100.00
43119;BME280;28729;49.838;8.650;2023-05-21T06:33:25;99449.94;;;18.24;100.00
43119;BME280;28729;49.838;8.650;2023-05-21T06:37:28;99445.25;;;18.47;100.00
43119;BME280;28729;49.838;8.650;2023-05-21T06:41:30;99444.94;;;18.76;100.00
43119;BME280;28729;49.838;8.650;2023-05-21T06:45:36;99448.34;;;19.09;100.00
43119;BME280;28729;49.838;8.650;2023-05-21T06:49:54;99448.78;;;19.39;100.00
43119;BME280;28729;49.838;8.650;2023-05-21T06:53:56;99452.28;;;19.67;100.00
43119;BME280;28729;49.838;8.650;2023-05-21T06:57:59;99453.34;;;19.79;100.00
43119;BME280;28729;49.838;8.650;2023-05-21T07:02:01;99459.75;;;19.80;100.00
43119;BME280;28729;49.838;8.650;2023-05-21T07:06:05;99458.31;;;19.83;100.00
43119;BME280;28729;49.838;8.650;2023-05-21T07:10:08;99457.06;;;19.66;100.00
43119;BME280;28729;49.838;8.650;2023-05-21T07:14:10;99458.28;;;19.60;100.00
43119;BME280;28729;49.838;8.650;2023-05-21T07:18:12;99454.56;;;19.65;100.00
43119;BME280;28729;49.838;8.650;2023-05-21T07:22:14;99459.00;;;19.66;100.00
43119;BME280;28729;49.838;8.650;2023-05-21T07:26:16;99460.03;;;19.70;100.00
43119;BME280;28729;49.838;8.650;2023-05-21T07:30:19;99458.25;;;19.74;100.00
43119;BME280;28729;49.838;8.650;2023-05-21T07:34:21;99455.69;;;19.86;100.00
43119;BME280;28729;49.838;8.650;2023-05-21T07:38:23;99456.59;;;20.04;100.00
43119;BME280;28729;49.838;8.650;2023-05-21T07:42:25;99453.59;;;20.23;100.00
43119;BME280;28729;49.838;8.650;2023-05-21T07:46:29;99452.31;;;20.38;98.44
43119;BME280;28729;49.838;8.650;2023-05-21T07:50:31;99441.88;;;20.61;96.86
43119;BME280;28729;49.838;8.650;2023-05-21T07:54:33;99443.56;;;20.97;90.12
43119;BME280;28729;49.838;8.650;2023-05-21T07:58:36;99446.06;;;21.15;92.81
43119;BME280;28729;49.838;8.650;2023-05-21T08:02:39;99448.06;;;21.50;91.49
43119;BME280;28729;49.838;8.650;2023-05-21T08:06:41;99457.59;;;21.66;88.26
43119;BME280;28729;49.838;8.650;2023-05-21T08:10:45;99446.03;;;21.68;87.91
43119;BME280;28729;49.838;8.650;2023-05-21T08:14:47;99452.44;;;21.85;86.67
43119;BME280;28729;49.838;8.650;2023-05-21T08:18:50;99449.69;;;22.15;86.00
43119;BME280;28729;49.838;8.650;2023-05-21T08:22:52;99453.50;;;22.28;85.19
43119;BME280;28729;49.838;8.650;2023-05-21T08:26:56;99449.94;;;22.40;84.54
43119;BME280;28729;49.838;8.650;2023-05-21T08:30:58;99446.69;;;22.38;82.71
43119;BME280;28729;49.838;8.650;2023-05-21T08:35:00;99453.72;;;22.52;80.34
43119;BME280;28729;49.838;8.650;2023-05-21T08:39:24;99449.78;;;22.74;79.13
43119;BME280;28729;49.838;8.650;2023-05-21T08:43:27;99445.69;;;22.93;78.70
43119;BME280;28729;49.838;8.650;2023-05-21T08:47:33;99444.75;;;23.10;78.10
43119;BME280;28729;49.838;8.650;2023-05-21T08:51:37;99447.94;;;23.08;73.72
43119;BME280;28729;49.838;8.650;2023-05-21T08:55:43;99446.81;;;23.22;74.23
43119;BME280;28729;49.838;8.650;2023-05-21T08:59:46;99453.59;;;23.41;75.80
43119;BME280;28729;49.838;8.650;2023-05-21T09:03:57;99445.09;;;23.50;72.29
43119;BME280;28729;49.838;8.650;2023-05-21T09:08:25;99453.56;;;23.62;70.85
43119;BME280;28729;49.838;8.650;2023-05-21T09:12:34;99445.41;;;23.70;70.10
43119;BME280;28729;49.838;8.650;2023-05-21T09:16:37;99442.88;;;23.77;70.66
43119;BME280;28729;49.838;8.650;2023-05-21T09:20:39;99446.72;;;23.72;70.56
43119;BME280;28729;49.838;8.650;2023-05-21T09:24:41;99441.13;;;23.84;69.35
43119;BME280;28729;49.838;8.650;2023-05-21T09:28:44;99440.81;;;23.98;67.09
43119;BME280;28729;49.838;8.650;2023-05-21T09:32:57;99446.84;;;24.21;68.97
43119;BME280;28729;49.838;8.650;2023-05-21T09:37:00;99445.91;;;24.42;66.84
43119;BME280;28729;49.838;8.650;2023-05-21T09:41:05;99430.41;;;24.36;67.29
43119;BME280;28729;49.838;8.650;2023-05-21T09:45:08;99433.63;;;24.46;65.79
43119;BME280;28729;49.838;8.650;2023-05-21T09:49:22;99432.31;;;24.44;63.07
43119;BME280;28729;49.838;8.650;2023-05-21T09:53:30;99438.44;;;24.46;63.97
43119;BME280;28729;49.838;8.650;2023-05-21T09:57:39;99446.25;;;24.40;63.14
43119;BME280;28729;49.838;8.650;2023-05-21T10:01:42;99436.25;;;24.18;61.32
43119;BME280;28729;49.838;8.650;2023-05-21T10:05:44;99439.06;;;24.18;64.17
43119;BME280;28729;49.838;8.650;2023-05-21T10:09:48;99434.31;;;24.43;63.88
43119;BME280;28729;49.838;8.650;2023-05-21T10:14:05;99430.31;;;24.44;62.28
43119;BME280;28729;49.838;8.650;2023-05-21T10:18:11;99429.75;;;24.63;62.44
43119;BME280;28729;49.838;8.650;2023-05-21T10:22:13;99433.59;;;24.71;61.13
43119;BME280;28729;49.838;8.650;2023-05-21T10:26:18;99420.34;;;24.59;59.42
43119;BME280;28729;49.838;8.650;2023-05-21T10:30:22;99421.28;;;24.63;60.48
43119;BME280;28729;49.838;8.650;2023-05-21T10:34:26;99418.41;;;25.00;59.61
43119;BME280;28729;49.838;8.650;2023-05-21T10:38:30;99414.38;;;25.54;59.26
43119;BME280;28729;49.838;8.650;2023-05-21T10:59:47;99397.91;;;27.18;50.19
43119;BME280;28729;49.838;8.650;2023-05-21T11:03:49;99405.41;;;27.68;50.43
43119;BME280;28729;49.838;8.650;2023-05-21T11:07:57;99395.97;;;28.03;48.13
43119;BME280;28729;49.838;8.650;2023-05-21T11:12:12;99396.78;;;27.81;47.82
43119;BME280;28729;49.838;8.650;2023-05-21T11:16:34;99390.16;;;27.96;48.35
43119;BME280;28729;49.838;8.650;2023-05-21T11:20:36;99390.44;;;28.10;46.27
43119;BME280;28729;49.838;8.650;2023-05-21T11:24:39;99387.44;;;28.49;46.92
43119;BME280;28729;49.838;8.650;2023-05-21T11:28:42;99382.53;;;28.73;43.38
43119;BME280;28729;49.838;8.650;2023-05-21T11:37:23;99380.06;;;28.18;44.43
43119;BME280;28729;49.838;8.650;2023-05-21T11:41:57;99373.19;;;27.96;43.71
43119;BME280;28729;49.838;8.650;2023-05-21T11:46:04;99374.19;;;28.07;45.36
43119;BME280;28729;49.838;8.650;2023-05-21T11:50:11;99381.38;;;28.24;45.06
43119;BME280;28729;49.838;8.650;2023-05-21T11:54:17;99371.34;;;28.53;44.64
43119;BME280;28729;49.838;8.650;2023-05-21T11:58:21;99368.81;;;28.75;43.82
43119;BME280;28729;49.838;8.650;2023-05-21T12:02:25;99366.97;;;29.16;42.00
43119;BME280;28729;49.838;8.650;2023-05-21T12:06:32;99368.97;;;29.83;41.38
43119;BME280;28729;49.838;8.650;2023-05-21T12:10:36;99359.44;;;30.57;39.46
43119;BME280;28729;49.838;8.650;2023-05-21T12:14:46;99357.25;;;30.92;37.89
43119;BME280;28729;49.838;8.650;2023-05-21T12:18:49;99360.56;;;31.04;38.30
43119;BME280;28729;49.838;8.650;2023-05-21T12:22:52;99353.56;;;31.93;35.93
43119;BME280;28729;49.838;8.650;2023-05-21T12:26:56;99371.50;;;32.22;35.77
43119;BME280;28729;49.838;8.650;2023-05-21T12:30:59;99360.91;;;32.62;34.08
43119;BME280;28729;49.838;8.650;2023-05-21T12:35:01;99355.91;;;33.02;33.00
43119;BME280;28729;49.838;8.650;2023-05-21T12:39:03;99349.91;;;33.73;31.71
43119;BME280;28729;49.838;8.650;2023-05-21T12:43:11;99346.34;;;34.14;30.07
43119;BME280;28729;49.838;8.650;2023-05-21T12:47:13;99348.47;;;34.52;30.02
43119;BME280;28729;49.838;8.650;2023-05-21T12:51:16;99346.16;;;35.15;29.32
43119;BME280;28729;49.838;8.650;2023-05-21T12:55:17;99346.38;;;35.62;28.28
43119;BME280;28729;49.838;8.650;2023-05-21T12:59:19;99341.69;;;35.75;27.44
43119;BME280;28729;49.838;8.650;2023-05-21T13:03:22;99340.94;;;35.71;27.38
43119;BME280;28729;49.838;8.650;2023-05-21T13:07:25;99331.63;;;35.91;28.11
43119;BME280;28729;49.838;8.650;2023-05-21T13:11:28;99338.75;;;36.57;27.34
43119;BME280;28729;49.838;8.650;2023-05-21T13:15:30;99344.03;;;36.58;26.67
43119;BME280;28729;49.838;8.650;2023-05-21T13:19:32;99325.94;;;36.61;25.64
43119;BME280;28729;49.838;8.650;2023-05-21T13:23:34;99327.91;;;36.41;26.51
43119;BME280;28729;49.838;8.650;2023-05-21T13:27:37;99336.03;;;36.46;26.72
43119;BME280;28729;49.838;8.650;2023-05-21T13:31:42;99327.00;;;36.71;26.00
43119;BME280;28729;49.838;8.650;2023-05-21T13:35:44;99320.31;;;36.98;25.94
43119;BME280;28729;49.838;8.650;2023-05-21T13:39:51;99330.53;;;37.38;26.15
43119;BME280;28729;49.838;8.650;2023-05-21T13:43:53;99327.09;;;37.47;25.47
43119;BME280;28729;49.838;8.650;2023-05-21T13:47:55;99315.22;;;37.98;25.13
43119;BME280;28729;49.838;8.650;2023-05-21T13:51:57;99314.94;;;38.25;24.78
43119;BME280;28729;49.838;8.650;2023-05-21T13:56:00;99316.81;;;38.64;24.75
43119;BME280;28729;49.838;8.650;2023-05-21T14:00:04;99318.47;;;38.78;22.51
43119;BME280;28729;49.838;8.650;2023-05-21T14:04:11;99319.00;;;38.27;21.93
43119;BME280;28729;49.838;8.650;2023-05-21T14:08:13;99315.06;;;38.05;22.35
43119;BME280;28729;49.838;8.650;2023-05-21T14:12:19;99318.84;;;37.66;22.67
43119;BME280;28729;49.838;8.650;2023-05-21T14:16:23;99320.41;;;37.14;23.12
43119;BME280;28729;49.838;8.650;2023-05-21T14:20:29;99320.06;;;36.45;23.78
43119;BME280;28729;49.838;8.650;2023-05-21T14:24:31;99311.88;;;36.23;23.99
43119;BME280;28729;49.838;8.650;2023-05-21T14:28:34;99309.38;;;35.98;25.07
43119;BME280;28729;49.838;8.650;2023-05-21T14:32:36;99315.25;;;34.99;25.72
43119;BME280;28729;49.838;8.650;2023-05-21T14:36:38;99315.78;;;34.49;26.73
43119;BME280;28729;49.838;8.650;2023-05-21T14:40:41;99321.09;;;34.06;27.80
43119;BME280;28729;49.838;8.650;2023-05-21T14:44:43;99319.16;;;33.18;28.74
43119;BME280;28729;49.838;8.650;2023-05-21T14:48:45;99319.34;;;32.50;28.90
43119;BME280;28729;49.838;8.650;2023-05-21T14:52:47;99317.75;;;32.20;29.11
43119;BME280;28729;49.838;8.650;2023-05-21T14:56:49;99319.75;;;31.84;30.15
43119;BME280;28729;49.838;8.650;2023-05-21T15:00:51;99319.72;;;31.66;30.24
43119;BME280;28729;49.838;8.650;2023-05-21T15:04:53;99305.34;;;31.23;30.67
43119;BME280;28729;49.838;8.650;2023-05-21T15:08:57;99306.94;;;31.03;31.07
43119;BME280;28729;49.838;8.650;2023-05-21T15:12:58;99311.66;;;30.77;30.73
43119;BME280;28729;49.838;8.650;2023-05-21T15:17:00;99312.34;;;30.56;31.86
43119;BME280;28729;49.838;8.650;2023-05-21T15:21:03;99302.38;;;30.25;32.69
43119;BME280;28729;49.838;8.650;2023-05-21T15:25:05;99295.66;;;29.96;32.74
43119;BME280;28729;49.838;8.650;2023-05-21T15:29:07;99297.16;;;29.86;33.10
43119;BME280;28729;49.838;8.650;2023-05-21T15:33:10;99296.38;;;29.86;33.72
43119;BME280;28729;49.838;8.650;2023-05-21T15:37:12;99291.88;;;29.81;33.90
43119;BME280;28729;49.838;8.650;2023-05-21T15:41:19;99293.00;;;29.73;35.69
43119;BME280;28729;49.838;8.650;2023-05-21T15:45:23;99298.53;;;29.59;36.52
43119;BME280;28729;49.838;8.650;2023-05-21T15:49:26;99290.63;;;29.41;37.19
43119;BME280;28729;49.838;8.650;2023-05-21T15:53:29;99292.47;;;29.23;37.07
43119;BME280;28729;49.838;8.650;2023-05-21T15:57:30;99288.34;;;29.17;37.29
43119;BME280;28729;49.838;8.650;2023-05-21T16:01:32;99287.44;;;29.09;37.07
43119;BME280;28729;49.838;8.650;2023-05-21T16:05:34;99284.97;;;29.04;37.87
43119;BME280;28729;49.838;8.650;2023-05-21T16:09:36;99292.88;;;28.91;37.63
43119;BME280;28729;49.838;8.650;2023-05-21T16:13:39;99287.94;;;28.84;38.42
43119;BME280;28729;49.838;8.650;2023-05-21T16:17:41;99293.47;;;28.74;38.95
43119;BME280;28729;49.838;8.650;2023-05-21T16:21:43;99295.44;;;28.70;38.37
43119;BME280;28729;49.838;8.650;2023-05-21T16:25:44;99291.59;;;28.55;39.34
43119;BME280;28729;49.838;8.650;2023-05-21T16:29:47;99303.56;;;28.41;38.51
43119;BME280;28729;49.838;8.650;2023-05-21T16:33:48;99293.59;;;28.28;39.94
43119;BME280;28729;49.838;8.650;2023-05-21T16:37:50;99294.81;;;28.27;38.95
43119;BME280;28729;49.838;8.650;2023-05-21T16:41:52;99299.25;;;28.28;38.98
43119;BME280;28729;49.838;8.650;2023-05-21T16:45:55;99295.97;;;28.26;38.99
43119;BME280;28729;49.838;8.650;2023-05-21T16:49:57;99293.03;;;28.18;39.35
43119;BME280;28729;49.838;8.650;2023-05-21T16:53:59;99298.66;;;28.15;39.72
43119;BME280;28729;49.838;8.650;2023-05-21T16:58:03;99290.25;;;28.22;39.32
43119;BME280;28729;49.838;8.650;2023-05-21T17:02:05;99295.63;;;28.27;39.10
43119;BME280;28729;49.838;8.650;2023-05-21T17:06:08;99297.53;;;28.46;38.31
43119;BME280;28729;49.838;8.650;2023-05-21T17:10:10;99298.94;;;28.59;38.21
43119;BME280;28729;49.838;8.650;2023-05-21T17:14:12;99304.03;;;28.47;40.12
43119;BME280;28729;49.838;8.650;2023-05-21T17:18:33;99297.16;;;28.48;40.01
43119;BME280;28729;49.838;8.650;2023-05-21T17:22:35;99298.03;;;28.52;39.81
43119;BME280;28729;49.838;8.650;2023-05-21T17:26:37;99306.16;;;28.53;40.45
43119;BME280;28729;49.838;8.650;2023-05-21T17:30:40;99306.69;;;28.36;41.70
43119;BME280;28729;49.838;8.650;2023-05-21T17:34:42;99306.97;;;28.04;41.01
43119;BME280;28729;49.838;8.650;2023-05-21T17:38:44;99308.34;;;27.87;41.32
43119;BME280;28729;49.838;8.650;2023-05-21T17:42:46;99309.84;;;27.81;41.69
43119;BME280;28729;49.838;8.650;2023-05-21T17:46:48;99312.41;;;27.67;44.96
43119;BME280;28729;49.838;8.650;2023-05-21T17:50:51;99312.44;;;27.47;45.58
43119;BME280;28729;49.838;8.650;2023-05-21T17:54:52;99314.56;;;27.31;47.03
43119;BME280;28729;49.838;8.650;2023-05-21T17:58:54;99311.72;;;27.12;46.98
43119;BME280;28729;49.838;8.650;2023-05-21T18:02:56;99311.22;;;26.87;49.87
43119;BME280;28729;49.838;8.650;2023-05-21T18:06:59;99309.03;;;26.61;50.08
43119;BME280;28729;49.838;8.650;2023-05-21T18:11:02;99314.97;;;26.40;51.80
43119;BME280;28729;49.838;8.650;2023-05-21T18:15:05;99305.19;;;26.18;53.85
43119;BME280;28729;49.838;8.650;2023-05-21T18:19:08;99307.47;;;25.96;55.72
43119;BME280;28729;49.838;8.650;2023-05-21T18:23:10;99310.19;;;25.77;55.88
43119;BME280;28729;49.838;8.650;2023-05-21T18:27:12;99303.78;;;25.48;56.21
43119;BME280;28729;49.838;8.650;2023-05-21T18:31:16;99314.66;;;25.18;57.22
43119;BME280;28729;49.838;8.650;2023-05-21T18:35:18;99310.97;;;24.89;58.20
43119;BME280;28729;49.838;8.650;2023-05-21T18:39:19;99312.97;;;24.61;59.47
43119;BME280;28729;49.838;8.650;2023-05-21T18:43:25;99306.78;;;24.30;59.79
43119;BME280;28729;49.838;8.650;2023-05-21T18:47:26;99300.91;;;23.99;61.27
43119;BME280;28729;49.838;8.650;2023-05-21T18:51:29;99306.88;;;23.73;63.30
43119;BME280;28729;49.838;8.650;2023-05-21T18:55:33;99313.47;;;23.43;64.28
43119;BME280;28729;49.838;8.650;2023-05-21T18:59:37;99314.09;;;23.16;66.29
43119;BME280;28729;49.838;8.650;2023-05-21T19:03:40;99313.88;;;22.88;66.34
43119;BME280;28729;49.838;8.650;2023-05-21T19:07:41;99315.56;;;22.59;67.03
43119;BME280;28729;49.838;8.650;2023-05-21T19:11:44;99309.31;;;22.33;68.08
43119;BME280;28729;49.838;8.650;2023-05-21T19:15:47;99314.72;;;22.08;69.07
43119;BME280;28729;49.838;8.650;2023-05-21T19:19:50;99312.69;;;21.88;69.96
43119;BME280;28729;49.838;8.650;2023-05-21T19:23:56;99313.94;;;21.69;70.37
43119;BME280;28729;49.838;8.650;2023-05-21T19:27:59;99320.09;;;21.54;69.92
43119;BME280;28729;49.838;8.650;2023-05-21T19:32:03;99319.47;;;21.39;70.21
43119;BME280;28729;49.838;8.650;2023-05-21T19:36:06;99326.91;;;21.27;71.04
43119;BME280;28729;49.838;8.650;2023-05-21T19:40:08;99337.63;;;21.16;71.41
43119;BME280;28729;49.838;8.650;2023-05-21T19:44:10;99341.59;;;21.06;71.45
43119;BME280;28729;49.838;8.650;2023-05-21T19:48:12;99336.00;;;20.98;71.60
43119;BME280;28729;49.838;8.650;2023-05-21T19:52:15;99340.13;;;20.91;72.19
43119;BME280;28729;49.838;8.650;2023-05-21T19:56:17;99333.72;;;20.82;71.95
43119;BME280;28729;49.838;8.650;2023-05-21T20:00:21;99343.59;;;20.80;71.41
43119;BME280;28729;49.838;8.650;2023-05-21T20:04:23;99347.34;;;20.75;70.99
43119;BME280;28729;49.838;8.650;2023-05-21T20:08:24;99344.41;;;20.71;71.42
43119;BME280;28729;49.838;8.650;2023-05-21T20:12:26;99347.34;;;20.66;72.27
43119;BME280;28729;49.838;8.650;2023-05-21T20:16:28;99339.44;;;20.60;72.46
43119;BME280;28729;49.838;8.650;2023-05-21T20:20:30;99339.13;;;20.53;72.35
43119;BME280;28729;49.838;8.650;2023-05-21T20:24:35;99344.34;;;20.45;72.50
43119;BME280;28729;49.838;8.650;2023-05-21T20:28:37;99345.66;;;20.39;72.26
43119;BME280;28729;49.838;8.650;2023-05-21T20:32:41;99337.91;;;20.36;72.86
43119;BME280;28729;49.838;8.650;2023-05-21T20:36:43;99344.16;;;20.33;72.76
43119;BME280;28729;49.838;8.650;2023-05-21T20:40:44;99338.41;;;20.30;72.78
43119;BME280;28729;49.838;8.650;2023-05-21T20:44:46;99335.91;;;20.28;72.56
43119;BME280;28729;49.838;8.650;2023-05-21T20:48:50;99328.81;;;20.22;72.96
43119;BME280;28729;49.838;8.650;2023-05-21T20:52:52;99325.53;;;20.20;73.36
43119;BME280;28729;49.838;8.650;2023-05-21T20:56:53;99325.34;;;20.16;73.93
43119;BME280;28729;49.838;8.650;2023-05-21T21:00:56;99328.47;;;20.15;73.56
43119;BME280;28729;49.838;8.650;2023-05-21T21:04:58;99338.84;;;20.14;74.40
43119;BME280;28729;49.838;8.650;2023-05-21T21:09:00;99338.84;;;20.14;73.95
43119;BME280;28729;49.838;8.650;2023-05-21T21:13:02;99338.22;;;20.17;74.42
43119;BME280;28729;49.838;8.650;2023-05-21T21:17:04;99343.81;;;20.17;75.70
43119;BME280;28729;49.838;8.650;2023-05-21T21:21:06;99336.22;;;20.18;76.16
43119;BME280;28729;49.838;8.650;2023-05-21T21:25:08;99339.03;;;20.18;75.96
43119;BME280;28729;49.838;8.650;2023-05-21T21:29:10;99340.84;;;20.14;75.78
43119;BME280;28729;49.838;8.650;2023-05-21T21:33:12;99343.63;;;20.14;76.30
43119;BME280;28729;49.838;8.650;2023-05-21T21:37:16;99337.19;;;20.13;76.76
43119;BME280;28729;49.838;8.650;2023-05-21T21:41:18;99334.38;;;20.13;75.97
43119;BME280;28729;49.838;8.650;2023-05-21T21:45:20;99335.25;;;20.14;76.51
43119;BME280;28729;49.838;8.650;2023-05-21T21:49:22;99336.38;;;20.13;75.59